createdAt,value
2022-11-20T00:01:37.360Z,20.40
2022-11-20T00:04:05.825Z,20.80
2022-11-20T00:06:34.223Z,21.30
2022-11-20T00:09:02.832Z,19.40
2022-11-20T00:11:32.377Z,20.10
2022-11-20T00:14:02.686Z,20.00
2022-11-20T00:16:33.377Z,19.50
2022-11-20T00:19:02.430Z,19.60
2022-11-20T00:21:31.404Z,18.90
2022-11-20T00:23:59.895Z,19.70
2022-11-20T00:26:29.608Z,18.50
2022-11-20T00:29:01.604Z,19.50
2022-11-20T00:31:31.483Z,20.60
2022-11-20T00:33:59.800Z,20.00
2022-11-20T00:36:31.099Z,19.00
2022-11-20T00:38:59.707Z,20.50
2022-11-20T00:41:31.168Z,19.70
2022-11-20T00:43:59.577Z,20.70
2022-11-20T00:46:28.845Z,20.40
2022-11-20T00:48:57.458Z,18.80
2022-11-20T00:51:27.642Z,20.70
2022-11-20T00:53:57.939Z,21.70
2022-11-20T00:56:26.842Z,19.30
2022-11-20T00:58:55.342Z,20.30
2022-11-20T01:01:26.597Z,20.80
2022-11-20T01:03:57.243Z,19.10
2022-11-20T01:06:31.817Z,19.10
2022-11-20T01:09:02.738Z,18.30
2022-11-20T01:11:37.115Z,21.20
2022-11-20T01:14:09.349Z,20.90
2022-11-20T01:16:49.392Z,19.20
2022-11-20T01:19:23.137Z,20.80
2022-11-20T01:21:54.262Z,18.70
2022-11-20T01:24:23.930Z,20.60
2022-11-20T01:26:53.333Z,18.50
2022-11-20T01:29:24.982Z,20.30
2022-11-20T01:31:54.259Z,20.10
2022-11-20T01:34:23.729Z,20.10
2022-11-20T01:36:54.017Z,22.50
2022-11-20T01:39:25.250Z,20.90
2022-11-20T01:42:13.487Z,20.20
2022-11-20T01:44:53.141Z,20.50
2022-11-20T01:47:38.398Z,19.30
2022-11-20T01:50:21.060Z,21.50
2022-11-20T01:52:54.983Z,19.90
2022-11-20T01:55:32.163Z,20.70
2022-11-20T01:58:01.911Z,21.50
2022-11-20T02:00:30.324Z,21.00
2022-11-20T02:03:01.619Z,21.20
2022-11-20T02:05:36.671Z,19.10
2022-11-20T02:08:06.930Z,21.30
2022-11-20T02:10:36.891Z,21.10
2022-11-20T02:13:24.192Z,21.60
2022-11-20T02:15:53.204Z,21.50
2022-11-20T02:18:23.259Z,19.80
2022-11-20T02:21:00.508Z,22.00
2022-11-20T02:23:32.145Z,20.70
2022-11-20T02:26:04.773Z,21.70
2022-11-20T02:28:33.595Z,18.60
2022-11-20T02:31:02.375Z,19.60
2022-11-20T02:33:30.725Z,20.90
2022-11-20T02:35:59.079Z,20.30
2022-11-20T02:38:27.730Z,17.70
2022-11-20T02:40:56.187Z,21.10
2022-11-20T02:43:24.779Z,21.50
2022-11-20T02:45:53.103Z,22.00
2022-11-20T02:48:22.962Z,21.80
2022-11-20T02:50:53.378Z,22.20
2022-11-20T02:53:21.719Z,20.20
2022-11-20T02:55:50.074Z,20.60
2022-11-20T02:58:18.462Z,21.70
2022-11-20T03:00:46.837Z,21.30
2022-11-20T03:03:15.143Z,21.20
2022-11-20T03:05:43.523Z,22.60
2022-11-20T03:08:11.958Z,21.40
2022-11-20T03:10:40.140Z,22.30
2022-11-20T03:13:08.406Z,22.70
2022-11-20T03:15:38.203Z,21.20
2022-11-20T03:18:06.367Z,20.20
2022-11-20T03:20:35.055Z,21.80
2022-11-20T03:23:03.730Z,20.10
2022-11-20T03:25:32.735Z,20.00
2022-11-20T03:28:00.847Z,22.80
2022-11-20T03:30:30.926Z,23.10
2022-11-20T03:32:59.394Z,22.60
2022-11-20T03:35:27.711Z,22.40
2022-11-20T03:37:55.824Z,21.90
2022-11-20T03:40:23.974Z,21.00
2022-11-20T03:42:52.152Z,20.70
2022-11-20T03:45:20.544Z,20.00
2022-11-20T03:47:51.674Z,20.20
2022-11-20T03:50:19.801Z,20.50
2022-11-20T03:52:47.961Z,22.50
2022-11-20T03:55:16.445Z,22.70
2022-11-20T03:57:44.865Z,22.30
2022-11-20T04:00:16.821Z,22.20
2022-11-20T04:02:44.926Z,23.00
2022-11-20T04:05:13.109Z,20.70
2022-11-20T04:07:41.563Z,21.70
2022-11-20T04:10:09.940Z,21.90
2022-11-20T04:12:38.077Z,21.00
2022-11-20T04:15:06.547Z,21.40
2022-11-20T04:17:35.172Z,21.70
2022-11-20T04:20:04.780Z,20.90
2022-11-20T04:22:35.282Z,22.90
2022-11-20T04:25:03.657Z,22.70
2022-11-20T04:27:32.027Z,22.60
2022-11-20T04:30:00.141Z,22.90
2022-11-20T04:32:28.338Z,22.40
2022-11-20T04:34:56.442Z,21.30
2022-11-20T04:37:24.588Z,19.60
2022-11-20T04:39:52.739Z,22.50
2022-11-20T04:42:30.037Z,23.30
2022-11-20T04:44:59.711Z,21.70
2022-11-20T04:47:28.210Z,22.70
2022-11-20T04:49:56.402Z,22.60
2022-11-20T04:52:25.826Z,22.70
2022-11-20T04:54:54.469Z,23.50
2022-11-20T04:57:22.796Z,22.30
2022-11-20T04:59:50.878Z,24.10
2022-11-20T05:02:19.361Z,23.00
2022-11-20T05:04:47.660Z,22.40
2022-11-20T05:07:16.109Z,23.00
2022-11-20T05:09:44.286Z,23.40
2022-11-20T05:12:12.966Z,20.00
2022-11-20T05:14:43.784Z,23.40
2022-11-20T05:17:13.539Z,23.60
2022-11-20T05:19:41.763Z,22.10
2022-11-20T05:22:09.983Z,24.40
2022-11-20T05:24:38.150Z,23.10
2022-11-20T05:27:07.399Z,24.90
2022-11-20T05:29:35.546Z,23.60
2022-11-20T05:32:03.782Z,24.50
2022-11-20T05:34:33.194Z,22.80
2022-11-20T05:37:01.621Z,23.70
2022-11-20T05:39:29.796Z,25.40
2022-11-20T05:42:17.449Z,25.10
2022-11-20T05:44:45.588Z,24.30
2022-11-20T05:47:13.748Z,24.80
2022-11-20T05:49:42.005Z,27.50
2022-11-20T05:52:10.169Z,23.40
2022-11-20T05:54:38.308Z,24.60
2022-11-20T05:57:06.496Z,22.70
2022-11-20T05:59:36.992Z,25.40
2022-11-20T06:02:06.201Z,21.70
2022-11-20T06:04:35.776Z,23.30
2022-11-20T06:07:05.812Z,23.00
2022-11-20T06:09:34.976Z,25.40
2022-11-20T06:12:03.393Z,23.50
2022-11-20T06:14:31.765Z,24.90
2022-11-20T06:17:00.584Z,24.10
2022-11-20T06:19:28.937Z,23.90
2022-11-20T06:21:57.289Z,22.90
2022-11-20T06:24:26.628Z,23.40
2022-11-20T06:26:54.924Z,24.60
2022-11-20T06:29:23.575Z,24.50
2022-11-20T06:31:52.193Z,23.60
2022-11-20T06:34:20.639Z,23.20
2022-11-20T06:36:48.916Z,25.40
2022-11-20T06:39:17.289Z,25.30
2022-11-20T06:41:45.638Z,23.80
2022-11-20T06:44:13.935Z,24.00
2022-11-20T06:46:42.211Z,25.40
2022-11-20T06:49:11.154Z,23.30
2022-11-20T06:51:39.578Z,24.80
2022-11-20T06:54:08.026Z,25.90
2022-11-20T06:56:36.343Z,25.60
2022-11-20T06:59:08.501Z,24.70
2022-11-20T07:01:36.910Z,26.20
2022-11-20T07:04:05.342Z,26.50
2022-11-20T07:06:33.639Z,25.60
2022-11-20T07:09:02.755Z,27.10
2022-11-20T07:11:31.013Z,27.60
2022-11-20T07:13:59.334Z,27.60
2022-11-20T07:16:27.663Z,26.60
2022-11-20T07:18:55.942Z,25.20
2022-11-20T07:21:24.226Z,27.10
2022-11-20T07:23:52.599Z,24.70
2022-11-20T07:26:21.127Z,27.20
2022-11-20T07:28:49.465Z,28.10
2022-11-20T07:31:19.640Z,29.80
2022-11-20T07:33:48.436Z,28.30
2022-11-20T07:36:16.785Z,30.30
2022-11-20T07:38:45.070Z,29.10
2022-11-20T07:41:13.346Z,28.90
2022-11-20T07:43:41.929Z,26.90
2022-11-20T07:46:10.367Z,29.70
2022-11-20T07:48:38.843Z,27.70
2022-11-20T07:51:07.231Z,28.40
2022-11-20T07:53:35.702Z,28.60
2022-11-20T07:56:04.704Z,28.20
2022-11-20T07:58:34.166Z,30.00
2022-11-20T08:01:08.845Z,27.90
2022-11-20T08:03:38.899Z,29.30
2022-11-20T08:06:07.789Z,27.40
2022-11-20T08:08:40.108Z,29.60
2022-11-20T08:11:29.337Z,29.00
2022-11-20T08:14:13.123Z,28.10
2022-11-20T08:16:46.472Z,29.10
2022-11-20T08:19:16.592Z,28.60
2022-11-20T08:21:45.480Z,28.20
2022-11-20T08:24:14.341Z,28.40
2022-11-20T08:26:42.956Z,27.30
2022-11-20T08:29:11.340Z,29.20
2022-11-20T08:31:39.689Z,28.70
2022-11-20T08:34:28.037Z,28.20
2022-11-20T08:36:56.384Z,27.40
2022-11-20T08:39:25.393Z,27.80
2022-11-20T08:41:54.374Z,26.90
2022-11-20T08:44:23.057Z,27.70
2022-11-20T08:46:51.826Z,27.60
2022-11-20T08:49:20.869Z,25.70
2022-11-20T08:51:52.833Z,28.00
2022-11-20T08:54:23.082Z,27.40
2022-11-20T08:56:51.493Z,28.10
2022-11-20T08:59:37.229Z,23.80
2022-11-20T09:02:09.122Z,28.20
2022-11-20T09:04:37.696Z,26.40
2022-11-20T09:07:06.060Z,27.90
2022-11-20T09:09:34.706Z,27.70
2022-11-20T09:12:03.032Z,26.00
2022-11-20T09:14:31.650Z,27.10
2022-11-20T09:17:00.141Z,26.80
2022-11-20T09:22:16.852Z,27.30
2022-11-20T09:24:46.200Z,28.10
2022-11-20T09:27:15.586Z,27.90
2022-11-20T09:29:43.838Z,27.90
2022-11-20T09:32:12.120Z,27.80
2022-11-20T09:34:40.945Z,30.10
2022-11-20T09:37:09.308Z,28.20
2022-11-20T09:39:40.163Z,28.00
2022-11-20T09:42:54.116Z,25.60
2022-11-20T09:45:44.537Z,24.80
2022-11-20T09:48:50.022Z,28.20
2022-11-20T09:51:43.508Z,25.30
2022-11-20T09:54:21.741Z,29.30
2022-11-20T09:56:56.317Z,28.00
2022-11-20T09:59:31.808Z,27.40
2022-11-20T10:02:01.880Z,27.60
2022-11-20T10:04:36.771Z,29.50
2022-11-20T10:07:32.970Z,26.60
2022-11-20T10:10:02.088Z,28.40
2022-11-20T10:12:44.848Z,29.10
2022-11-20T10:15:43.276Z,25.70
2022-11-20T10:18:24.603Z,31.10
2022-11-20T10:20:55.529Z,28.00
2022-11-20T10:23:32.743Z,30.00
2022-11-20T10:26:17.889Z,29.90
2022-11-20T10:29:09.150Z,31.70
2022-11-20T10:31:43.632Z,30.40
2022-11-20T10:34:27.743Z,31.40
2022-11-20T10:36:59.727Z,21.00
2022-11-20T10:39:43.947Z,28.70
2022-11-20T10:42:17.806Z,29.90
2022-11-20T10:45:05.993Z,29.90
2022-11-20T10:47:37.262Z,29.70
2022-11-20T10:50:12.196Z,30.50
2022-11-20T10:53:01.874Z,30.30
2022-11-20T10:55:40.392Z,28.70
2022-11-20T10:58:19.913Z,30.30
2022-11-20T11:00:48.242Z,30.00
2022-11-20T11:03:28.646Z,32.70
2022-11-20T11:06:38.887Z,31.70
2022-11-20T11:09:18.952Z,31.80
2022-11-20T11:11:47.359Z,30.50
2022-11-20T11:14:16.905Z,31.30
2022-11-20T11:16:59.011Z,29.70
2022-11-20T11:19:27.324Z,27.70
2022-11-20T11:22:00.209Z,27.50
2022-11-20T11:24:46.240Z,26.80
2022-11-20T11:27:18.965Z,25.40
2022-11-20T11:29:48.230Z,28.20
2022-11-20T11:32:21.802Z,25.90
2022-11-20T11:35:02.075Z,24.70
2022-11-20T11:37:39.500Z,26.60
2022-11-20T11:40:27.598Z,26.30
2022-11-20T11:43:01.373Z,23.60
2022-11-20T11:45:30.037Z,28.20
2022-11-20T11:48:02.186Z,29.70
2022-11-20T11:50:30.998Z,28.40
2022-11-20T11:53:16.078Z,23.80
2022-11-20T11:56:06.638Z,28.40
2022-11-20T11:58:44.516Z,26.60
2022-11-20T12:01:42.577Z,27.10
2022-11-20T12:04:47.597Z,28.70
2022-11-20T12:07:48.037Z,27.90
2022-11-20T12:10:24.192Z,28.70
2022-11-20T12:13:02.035Z,24.20
2022-11-20T12:15:32.519Z,28.30
2022-11-20T12:18:01.889Z,22.80
2022-11-20T12:20:41.793Z,24.80
2022-11-20T12:23:23.932Z,24.30
2022-11-20T12:25:55.690Z,27.60
2022-11-20T12:28:55.981Z,26.20
2022-11-20T12:31:24.293Z,26.10
2022-11-20T12:34:09.569Z,26.30
2022-11-20T12:37:00.157Z,24.30
2022-11-20T12:39:43.801Z,27.90
2022-11-20T12:45:26.110Z,26.30
2022-11-20T12:48:16.328Z,27.90
2022-11-20T12:51:13.900Z,28.80
2022-11-20T12:53:56.908Z,28.00
2022-11-20T12:56:33.135Z,27.30
2022-11-20T12:59:36.187Z,27.90
2022-11-20T13:02:16.084Z,27.00
2022-11-20T13:05:09.741Z,27.90
2022-11-20T13:07:38.699Z,25.80
2022-11-20T13:10:20.056Z,26.40
2022-11-20T13:13:13.319Z,24.20
2022-11-20T13:15:53.653Z,27.70
2022-11-20T13:18:22.438Z,26.20
2022-11-20T13:20:52.221Z,29.30
2022-11-20T13:23:28.743Z,23.50
2022-11-20T13:26:18.043Z,27.70
2022-11-20T13:28:48.627Z,25.80
2022-11-20T13:31:32.571Z,26.60
2022-11-20T13:34:04.580Z,28.70
2022-11-20T13:36:33.797Z,27.50
2022-11-20T13:39:02.314Z,29.10
2022-11-20T13:41:36.483Z,23.30
2022-11-20T13:44:40.040Z,28.50
2022-11-20T13:47:26.433Z,31.80
2022-11-20T13:49:58.350Z,27.20
2022-11-20T13:52:48.045Z,32.00
2022-11-20T13:55:51.378Z,29.00
2022-11-20T13:58:33.712Z,31.70
2022-11-20T14:01:21.048Z,26.20
2022-11-20T14:04:06.712Z,30.70
2022-11-20T14:06:48.380Z,29.40
2022-11-20T14:09:31.808Z,26.00
2022-11-20T14:12:00.927Z,26.60
2022-11-20T14:14:31.333Z,28.50
2022-11-20T14:17:18.074Z,27.20
2022-11-20T14:19:48.787Z,31.70
2022-11-20T14:22:18.027Z,27.70
2022-11-20T14:24:47.071Z,29.40
2022-11-20T14:27:21.973Z,31.30
2022-11-20T14:29:51.695Z,29.10
2022-11-20T14:32:23.466Z,27.20
2022-11-20T14:34:52.185Z,31.20
2022-11-20T14:37:27.557Z,29.30
2022-11-20T14:39:57.370Z,28.30
2022-11-20T14:42:32.030Z,30.70
2022-11-20T14:45:01.988Z,31.10
2022-11-20T14:47:32.308Z,33.80
2022-11-20T14:50:05.934Z,32.90
2022-11-20T14:52:38.620Z,33.50
2022-11-20T14:55:09.939Z,35.10
2022-11-20T14:57:38.390Z,32.80
2022-11-20T15:00:28.790Z,35.20
2022-11-20T15:02:57.298Z,32.90
2022-11-20T15:05:47.374Z,34.70
2022-11-20T15:08:17.368Z,33.80
2022-11-20T15:10:50.408Z,30.10
2022-11-20T15:13:18.766Z,32.40
2022-11-20T15:15:50.505Z,31.00
2022-11-20T15:18:39.445Z,28.50
2022-11-20T15:21:13.708Z,31.20
2022-11-20T15:23:42.748Z,31.30
2022-11-20T15:26:19.528Z,31.10
2022-11-20T15:28:51.364Z,32.10
2022-11-20T15:31:22.816Z,34.60
2022-11-20T15:33:51.764Z,33.80
2022-11-20T15:36:20.052Z,33.40
2022-11-20T15:38:48.490Z,32.00
2022-11-20T15:41:16.746Z,32.40
2022-11-20T15:43:45.141Z,30.70
2022-11-20T15:46:21.767Z,33.60
2022-11-20T15:48:56.580Z,31.90
2022-11-20T15:51:30.579Z,30.40
2022-11-20T15:54:00.574Z,32.00
2022-11-20T15:56:29.123Z,32.40
2022-11-20T15:58:57.585Z,32.50
2022-11-20T16:01:26.156Z,33.50
2022-11-20T16:03:54.504Z,32.00
2022-11-20T16:06:23.358Z,33.20
2022-11-20T16:08:51.775Z,33.00
2022-11-20T16:11:20.417Z,34.20
2022-11-20T16:14:07.142Z,31.90
2022-11-20T16:16:37.692Z,34.20
2022-11-20T16:19:06.458Z,34.60
2022-11-20T16:21:35.946Z,36.30
2022-11-20T16:24:06.532Z,35.60
2022-11-20T16:26:36.970Z,36.70
2022-11-20T16:29:07.275Z,36.60
2022-11-20T16:31:36.039Z,32.90
2022-11-20T16:34:11.943Z,35.00
2022-11-20T16:36:51.506Z,36.70
2022-11-20T16:39:23.691Z,34.90
2022-11-20T16:41:53.249Z,37.30
2022-11-20T16:44:22.344Z,33.70
2022-11-20T16:46:50.926Z,38.10
2022-11-20T16:49:19.426Z,37.80
2022-11-20T16:51:47.855Z,36.40
2022-11-20T16:54:20.851Z,38.30
2022-11-20T16:56:52.014Z,35.90
2022-11-20T16:59:20.738Z,34.40
2022-11-20T17:01:49.321Z,36.10
2022-11-20T17:04:17.818Z,37.50
2022-11-20T17:06:46.294Z,31.90
2022-11-20T17:09:14.813Z,35.50
2022-11-20T17:11:43.377Z,33.00
2022-11-20T17:14:12.725Z,35.30
2022-11-20T17:16:41.565Z,37.40
2022-11-20T17:19:10.050Z,38.80
2022-11-20T17:21:39.837Z,38.00
2022-11-20T17:24:11.651Z,36.70
2022-11-20T17:26:41.716Z,36.20
2022-11-20T17:29:14.304Z,31.90
2022-11-20T17:31:43.302Z,34.40
2022-11-20T17:34:13.868Z,36.40
2022-11-20T17:36:45.984Z,36.50
2022-11-20T17:39:16.117Z,34.40
2022-11-20T17:41:45.684Z,35.70
2022-11-20T17:44:14.037Z,36.60
2022-11-20T17:46:42.624Z,31.70
2022-11-20T17:49:11.282Z,34.30
2022-11-20T17:51:40.872Z,28.40
2022-11-20T17:54:11.165Z,31.90
2022-11-20T17:56:58.245Z,29.80
2022-11-20T17:59:27.369Z,32.90
2022-11-20T18:01:59.642Z,32.80
2022-11-20T18:04:30.888Z,31.30
2022-11-20T18:06:59.243Z,34.40
2022-11-20T18:09:27.887Z,34.10
2022-11-20T18:11:56.255Z,35.70
2022-11-20T18:14:34.903Z,31.90
2022-11-20T18:17:06.848Z,32.20
2022-11-20T18:19:55.745Z,28.20
2022-11-20T18:22:31.662Z,29.50
2022-11-20T18:25:00.019Z,29.50
2022-11-20T18:27:28.145Z,29.10
2022-11-20T18:29:56.551Z,27.90
2022-11-20T18:32:24.999Z,29.40
2022-11-20T18:34:53.507Z,27.80
2022-11-20T18:37:28.526Z,30.90
2022-11-20T18:39:57.194Z,31.20
2022-11-20T18:42:44.418Z,26.10
2022-11-20T18:45:12.784Z,28.50
2022-11-20T18:47:41.120Z,27.60
2022-11-20T18:50:09.851Z,31.80
2022-11-20T18:52:41.875Z,25.40
2022-11-20T18:55:11.239Z,27.80
2022-11-20T18:57:40.463Z,25.20
2022-11-20T19:00:10.425Z,28.00
2022-11-20T19:05:27.896Z,26.50
2022-11-20T19:07:56.324Z,25.40
2022-11-20T19:10:24.929Z,25.60
2022-11-20T19:12:53.164Z,26.70
2022-11-20T19:15:22.312Z,26.80
2022-11-20T19:17:53.615Z,28.10
2022-11-20T19:20:21.863Z,25.90
2022-11-20T19:22:51.251Z,24.80
2022-11-20T19:25:19.467Z,23.70
2022-11-20T19:27:47.735Z,28.00
2022-11-20T19:30:15.987Z,27.70
2022-11-20T19:32:44.151Z,27.20
2022-11-20T19:35:13.463Z,24.40
2022-11-20T19:37:41.776Z,27.80
2022-11-20T19:40:10.306Z,25.60
2022-11-20T19:42:39.569Z,27.80
2022-11-20T19:45:08.575Z,27.40
2022-11-20T19:48:06.023Z,26.30
2022-11-20T19:50:25.215Z,24.60
2022-11-20T19:52:58.523Z,22.80
2022-11-20T19:55:27.384Z,25.00
2022-11-20T19:57:56.519Z,24.00
2022-11-20T20:00:31.207Z,26.60
2022-11-20T20:03:01.140Z,21.20
2022-11-20T20:05:29.615Z,24.60
2022-11-20T20:07:57.921Z,23.30
2022-11-20T20:10:26.107Z,22.20
2022-11-20T20:12:54.363Z,24.30
2022-11-20T20:15:22.623Z,23.40
2022-11-20T20:17:54.167Z,22.70
2022-11-20T20:20:22.753Z,23.30
2022-11-20T20:22:51.250Z,21.70
2022-11-20T20:25:19.935Z,23.10
2022-11-20T20:27:52.316Z,22.80
2022-11-20T20:30:20.674Z,21.90
2022-11-20T20:32:53.313Z,23.40
2022-11-20T20:35:24.503Z,23.20
2022-11-20T20:37:53.214Z,20.20
2022-11-20T20:40:21.694Z,21.70
2022-11-20T20:42:50.260Z,23.30
2022-11-20T20:45:18.582Z,22.00
2022-11-20T20:47:46.858Z,23.10
2022-11-20T20:50:15.787Z,24.20
2022-11-20T20:52:44.651Z,22.40
2022-11-20T20:55:12.974Z,21.10
2022-11-20T20:57:41.901Z,23.70
2022-11-20T21:00:11.644Z,21.80
2022-11-20T21:02:40.065Z,22.70
2022-11-20T21:05:08.872Z,24.70
2022-11-20T21:07:57.428Z,23.70
2022-11-20T21:10:25.723Z,21.10
2022-11-20T21:12:54.090Z,22.10
2022-11-20T21:15:22.274Z,22.20
2022-11-20T21:17:51.110Z,24.40
2022-11-20T21:20:37.628Z,21.50
2022-11-20T21:23:10.905Z,23.40
2022-11-20T21:28:08.431Z,20.30
2022-11-20T21:30:37.797Z,20.90
2022-11-20T21:33:06.655Z,22.40
2022-11-20T21:35:35.386Z,18.80
2022-11-20T21:38:04.192Z,24.80
2022-11-20T21:40:36.144Z,21.20
2022-11-20T21:43:04.620Z,21.00
2022-11-20T21:45:32.940Z,22.10
2022-11-20T21:48:01.240Z,22.60
2022-11-20T21:50:30.145Z,19.10
2022-11-20T21:52:58.441Z,22.50
2022-11-20T21:55:27.179Z,21.80
2022-11-20T21:57:56.181Z,20.90
2022-11-20T22:00:24.647Z,22.40
2022-11-20T22:02:53.230Z,20.80
2022-11-20T22:05:21.504Z,20.90
2022-11-20T22:07:49.887Z,20.60
2022-11-20T22:10:18.834Z,22.40
2022-11-20T22:12:47.379Z,21.00
2022-11-20T22:15:27.991Z,20.40
2022-11-20T22:18:13.079Z,21.20
2022-11-20T22:20:41.860Z,20.90
2022-11-20T22:23:10.039Z,20.30
2022-11-20T22:25:38.519Z,21.00
2022-11-20T22:28:06.825Z,20.10
2022-11-20T22:30:35.088Z,20.00
2022-11-20T22:33:03.280Z,20.50
2022-11-20T22:35:31.480Z,21.70
2022-11-20T22:37:59.780Z,21.30
2022-11-20T22:40:28.144Z,18.90
2022-11-20T22:42:56.711Z,22.20
2022-11-20T22:45:25.124Z,18.90
2022-11-20T22:47:54.033Z,18.70
2022-11-20T22:50:25.584Z,19.20
2022-11-20T22:52:55.911Z,20.20
2022-11-20T22:55:24.076Z,18.10
2022-11-20T22:57:52.174Z,19.70
2022-11-20T23:00:20.593Z,20.20
2022-11-20T23:02:48.929Z,19.60
2022-11-20T23:05:17.052Z,16.50
2022-11-20T23:07:45.302Z,20.20
2022-11-20T23:10:13.881Z,21.20
2022-11-20T23:12:42.039Z,20.60
2022-11-20T23:15:10.979Z,22.60
2022-11-20T23:17:39.145Z,21.10
2022-11-20T23:20:08.362Z,23.90
2022-11-20T23:22:37.341Z,22.70
2022-11-20T23:25:06.382Z,19.50
2022-11-20T23:27:34.476Z,21.40
2022-11-20T23:30:02.871Z,22.50
2022-11-20T23:32:31.253Z,21.60
2022-11-20T23:34:59.465Z,20.00
2022-11-20T23:37:27.640Z,21.00
2022-11-20T23:39:55.739Z,21.10
2022-11-20T23:42:24.443Z,23.20
2022-11-20T23:44:52.791Z,23.20
2022-11-20T23:47:21.076Z,22.40
2022-11-20T23:49:49.593Z,22.60
2022-11-20T23:52:17.912Z,22.50
2022-11-20T23:54:46.352Z,21.90
2022-11-20T23:57:14.497Z,21.70
2022-11-20T23:59:42.611Z,21.80
